Time;durP1;ratioP1;P1;durP2;ratioP2;P2;SDS_P1;SDS_P2;PMS_P1;PMS_P2;Temp;Humidity;BMP_temperature;BMP_pressure;BME280_temperature;BME280_humidity;BME280_pressure;Samples;Min_cycle;Max_cycle;Signal;HPM_P1;HPM_P2
2022/12/20 00:00:58;;;;;;;0.30;0.30;;;5.40;99.90;;;;;;5074059;28;20615;-69
2022/12/20 00:03:23;;;;;;;0.30;0.30;;;5.50;99.90;;;;;;5074089;28;20425;-68
2022/12/20 00:05:49;;;;;;;0.30;0.30;;;5.50;99.90;;;;;;5073392;28;20169;-69
2022/12/20 00:08:15;;;;;;;0.37;0.37;;;5.40;99.90;;;;;;5073762;28;20260;-69
2022/12/20 00:10:43;;;;;;;0.40;0.40;;;5.30;99.90;;;;;;5072301;28;20244;-69
2022/12/20 00:13:09;;;;;;;0.40;0.40;;;5.30;99.90;;;;;;5073761;28;20179;-69
2022/12/20 00:15:35;;;;;;;0.40;0.40;;;5.10;99.90;;;;;;5073731;28;20169;-68
2022/12/20 00:18:00;;;;;;;0.50;0.50;;;5.10;99.90;;;;;;5074003;28;20399;-69
2022/12/20 00:20:28;;;;;;;0.37;0.37;;;5.10;99.90;;;;;;5073219;28;20197;-69
2022/12/20 00:22:54;;;;;;;0.30;0.30;;;5.00;99.90;;;;;;5076620;28;20169;-68
2022/12/20 00:25:20;;;;;;;0.30;0.30;;;5.00;99.90;;;;;;5077505;28;20178;-68
2022/12/20 00:27:47;;;;;;;0.40;0.40;;;5.10;99.90;;;;;;5077758;28;20177;-68
2022/12/20 00:30:14;;;;;;;0.40;0.40;;;5.10;99.90;;;;;;5076479;28;20215;-69
2022/12/20 00:32:40;;;;;;;0.30;0.30;;;5.20;99.90;;;;;;5077953;28;20162;-68
2022/12/20 00:35:06;;;;;;;1.33;1.33;;;5.20;99.90;;;;;;5077493;28;20173;-69
2022/12/20 00:37:31;;;;;;;0.40;0.40;;;5.30;99.90;;;;;;5077253;28;20581;-68
2022/12/20 00:39:57;;;;;;;0.40;0.40;;;5.30;99.90;;;;;;5077377;28;20427;-69
2022/12/20 00:42:22;;;;;;;0.30;0.30;;;5.30;99.90;;;;;;5077512;28;20592;-68
2022/12/20 00:44:48;;;;;;;0.60;0.60;;;5.40;99.90;;;;;;5077139;28;20206;-68
2022/12/20 00:47:14;;;;;;;0.40;0.40;;;5.40;99.90;;;;;;5077644;28;20201;-68
2022/12/20 00:49:40;;;;;;;0.30;0.30;;;5.30;99.90;;;;;;5077578;28;20244;-68
2022/12/20 00:52:06;;;;;;;0.40;0.40;;;5.40;99.90;;;;;;5077081;28;20169;-68
2022/12/20 00:54:32;;;;;;;0.40;0.40;;;5.40;99.90;;;;;;5076851;28;20353;-68
2022/12/20 00:56:58;;;;;;;0.60;0.60;;;5.30;99.90;;;;;;5077183;28;20424;-68
2022/12/20 00:59:24;;;;;;;2.10;0.50;;;5.30;99.90;;;;;;5076919;28;20217;-69
2022/12/20 01:01:50;;;;;;;0.30;0.30;;;5.30;99.90;;;;;;5077389;28;20223;-69
2022/12/20 01:04:15;;;;;;;1.30;0.77;;;5.20;99.90;;;;;;5076794;28;20253;-68
2022/12/20 01:06:41;;;;;;;0.40;0.40;;;5.20;99.90;;;;;;5076871;28;20173;-68
2022/12/20 01:09:07;;;;;;;0.30;0.30;;;5.10;99.90;;;;;;5076624;28;20314;-69
2022/12/20 01:11:34;;;;;;;0.40;0.40;;;5.10;99.90;;;;;;5076945;28;20178;-69
2022/12/20 01:14:03;;;;;;;2.28;2.15;;;5.10;99.90;;;;;;5076659;28;20177;-69
2022/12/20 01:16:36;;;;;;;0.40;0.40;;;5.10;99.90;;;;;;5077054;28;20174;-69
2022/12/20 01:19:03;;;;;;;0.40;0.40;;;5.00;99.90;;;;;;5076690;28;20194;-68
2022/12/20 01:21:29;;;;;;;0.40;0.40;;;5.10;99.90;;;;;;5076520;28;20524;-69
2022/12/20 01:23:55;;;;;;;0.50;0.50;;;5.10;99.90;;;;;;5076470;28;20177;-68
2022/12/20 01:26:23;;;;;;;0.40;0.40;;;5.10;99.90;;;;;;5075299;28;20178;-69
2022/12/20 01:28:52;;;;;;;0.40;0.40;;;5.20;99.90;;;;;;5075491;28;20667;-68
2022/12/20 01:31:19;;;;;;;0.50;0.50;;;5.10;99.90;;;;;;5076539;28;20540;-68
2022/12/20 01:33:46;;;;;;;0.35;0.35;;;5.20;99.90;;;;;;5076086;28;20192;-69
2022/12/20 01:36:19;;;;;;;0.38;0.38;;;5.20;99.90;;;;;;5075872;28;20578;-69
2022/12/20 01:38:45;;;;;;;0.40;0.40;;;5.10;99.90;;;;;;5076331;28;20186;-68
2022/12/20 01:41:21;;;;;;;0.32;0.32;;;5.10;99.90;;;;;;5076307;28;20593;-68
2022/12/20 01:43:52;;;;;;;0.50;0.50;;;5.20;99.90;;;;;;5076612;28;20208;-68
2022/12/20 01:46:19;;;;;;;0.60;0.60;;;5.20;99.90;;;;;;5075906;28;20177;-68
2022/12/20 01:48:53;;;;;;;0.40;0.40;;;5.30;99.90;;;;;;5076099;28;20268;-68
2022/12/20 01:51:19;;;;;;;0.40;0.40;;;5.30;99.90;;;;;;5076316;28;20536;-68
2022/12/20 01:53:47;;;;;;;0.70;0.70;;;5.40;99.90;;;;;;5075999;28;20162;-68
2022/12/20 01:56:13;;;;;;;0.40;0.40;;;5.50;99.90;;;;;;5076237;28;20170;-69
2022/12/20 01:58:39;;;;;;;0.40;0.40;;;5.60;99.90;;;;;;5075864;28;20185;-68
2022/12/20 02:01:05;;;;;;;0.40;0.40;;;5.60;99.90;;;;;;5076277;28;20407;-69
2022/12/20 02:03:31;;;;;;;0.50;0.50;;;5.60;99.90;;;;;;5075965;28;20180;-69
2022/12/20 02:06:08;;;;;;;0.30;0.30;;;5.50;99.90;;;;;;5075880;28;20185;-68
2022/12/20 02:08:34;;;;;;;0.30;0.30;;;5.40;99.90;;;;;;5076177;28;20173;-69
2022/12/20 02:11:08;;;;;;;0.70;0.70;;;5.30;99.90;;;;;;5076170;28;20198;-68
2022/12/20 02:13:58;;;;;;;1.40;0.63;;;5.30;99.90;;;;;;5075820;28;20607;-69
2022/12/20 02:16:27;;;;;;;0.30;0.30;;;5.40;99.90;;;;;;5075707;28;20165;-68
2022/12/20 02:19:24;;;;;;;0.40;0.40;;;5.40;99.90;;;;;;5075660;28;20254;-68
2022/12/20 02:22:13;;;;;;;0.60;0.60;;;5.40;99.90;;;;;;5075488;28;20172;-68
2022/12/20 02:24:58;;;;;;;0.30;0.30;;;5.30;99.90;;;;;;5075338;28;20170;-69
2022/12/20 02:27:39;;;;;;;0.30;0.30;;;5.30;99.90;;;;;;5074577;28;20212;-68
2022/12/20 02:30:10;;;;;;;0.50;0.50;;;5.30;99.90;;;;;;5075116;28;20202;-69
2022/12/20 02:33:02;;;;;;;0.30;0.30;;;5.40;99.90;;;;;;5075510;28;20166;-69
2022/12/20 02:35:31;;;;;;;0.50;0.50;;;5.30;99.90;;;;;;5074944;28;20535;-69
2022/12/20 02:37:59;;;;;;;0.30;0.30;;;5.40;99.90;;;;;;5074242;28;20276;-68
2022/12/20 02:40:38;;;;;;;0.35;0.35;;;5.40;99.90;;;;;;5074802;28;20681;-69
2022/12/20 02:45:14;;;;;;;0.30;0.30;;;5.40;99.90;;;;;;5075205;28;20526;-68
2022/12/20 02:45:57;;;;;;;0.50;0.50;;;5.40;99.90;;;;;;5074258;28;20654;-68
2022/12/20 02:48:25;;;;;;;0.40;0.40;;;5.40;99.90;;;;;;5075262;28;20171;-68
2022/12/20 02:50:55;;;;;;;0.50;0.40;;;5.40;99.90;;;;;;5074748;28;20197;-69
2022/12/20 02:53:22;;;;;;;0.40;0.40;;;5.40;99.90;;;;;;5073644;28;20189;-68
2022/12/20 02:56:03;;;;;;;0.88;0.88;;;5.50;99.90;;;;;;5073208;28;20174;-68
2022/12/20 02:58:45;;;;;;;0.52;0.52;;;5.60;99.90;;;;;;5074989;28;20619;-68
2022/12/20 03:01:30;;;;;;;0.40;0.40;;;5.60;99.90;;;;;;5074955;28;20165;-68
2022/12/20 03:03:57;;;;;;;0.40;0.40;;;5.60;99.90;;;;;;5074907;28;20178;-68
2022/12/20 03:06:23;;;;;;;0.40;0.40;;;5.60;99.90;;;;;;5074596;28;20637;-68
2022/12/20 03:08:49;;;;;;;0.40;0.40;;;5.60;99.90;;;;;;5073511;28;20197;-68
2022/12/20 03:11:15;;;;;;;0.30;0.30;;;5.60;99.90;;;;;;5074745;28;20451;-69
2022/12/20 03:13:40;;;;;;;0.40;0.40;;;5.60;99.90;;;;;;5074786;28;20173;-68
2022/12/20 03:16:06;;;;;;;0.50;0.50;;;5.60;99.90;;;;;;5074282;28;20830;-69
2022/12/20 03:18:32;;;;;;;0.60;0.60;;;5.60;99.90;;;;;;5074486;28;20177;-68
2022/12/20 03:20:57;;;;;;;0.33;0.33;;;5.70;99.90;;;;;;5074579;28;20411;-68
2022/12/20 03:23:23;;;;;;;0.37;0.37;;;5.70;99.90;;;;;;5074618;28;20180;-68
2022/12/20 03:25:49;;;;;;;0.40;0.40;;;5.70;99.90;;;;;;5073860;28;20181;-68
2022/12/20 03:28:15;;;;;;;0.30;0.30;;;5.70;99.90;;;;;;5073939;28;20780;-69
2022/12/20 03:30:41;;;;;;;0.60;0.60;;;5.80;99.90;;;;;;5074050;28;20560;-69
2022/12/20 03:33:06;;;;;;;0.30;0.30;;;5.80;99.90;;;;;;5074235;28;20175;-68
2022/12/20 03:35:32;;;;;;;0.37;0.37;;;5.80;99.90;;;;;;5074266;28;20170;-69
2022/12/20 03:37:58;;;;;;;0.30;0.30;;;5.90;99.90;;;;;;5074320;28;20189;-69
2022/12/20 03:40:24;;;;;;;4.00;1.02;;;5.90;99.90;;;;;;5073882;28;20208;-69
2022/12/20 03:42:50;;;;;;;0.40;0.40;;;5.90;99.90;;;;;;5073947;28;20183;-69
2022/12/20 03:45:16;;;;;;;0.40;0.40;;;5.90;99.90;;;;;;5073752;28;20172;-69
2022/12/20 03:47:41;;;;;;;0.30;0.30;;;5.90;99.90;;;;;;5074220;28;20202;-68
2022/12/20 03:50:07;;;;;;;1.33;1.00;;;5.90;99.90;;;;;;5074043;28;20456;-69
2022/12/20 03:52:33;;;;;;;0.50;0.50;;;5.90;99.90;;;;;;5074242;28;20189;-68
2022/12/20 03:54:59;;;;;;;0.40;0.40;;;6.00;99.90;;;;;;5073609;28;20177;-69
2022/12/20 03:57:25;;;;;;;0.30;0.30;;;5.90;99.90;;;;;;5072985;28;20173;-69
2022/12/20 03:59:50;;;;;;;1.30;1.20;;;5.90;99.90;;;;;;5073606;28;20496;-68
2022/12/20 04:02:16;;;;;;;0.40;0.40;;;5.90;99.90;;;;;;5073875;28;20626;-69
2022/12/20 04:04:42;;;;;;;0.40;0.40;;;5.90;99.90;;;;;;5073596;28;20185;-68
2022/12/20 04:07:08;;;;;;;0.30;0.30;;;5.80;99.90;;;;;;5073558;28;20169;-69
2022/12/20 04:09:33;;;;;;;0.88;0.88;;;5.70;99.90;;;;;;5073283;28;20206;-68
2022/12/20 04:12:00;;;;;;;0.30;0.30;;;5.70;99.90;;;;;;5073537;28;20182;-68
2022/12/20 04:14:30;;;;;;;0.32;0.32;;;5.70;99.90;;;;;;5073538;28;20227;-69
2022/12/20 04:17:00;;;;;;;0.40;0.40;;;5.80;99.90;;;;;;5072279;28;20174;-69
2022/12/20 04:19:28;;;;;;;0.40;0.40;;;5.70;99.90;;;;;;5072484;28;20202;-69
2022/12/20 04:21:55;;;;;;;0.30;0.30;;;5.70;99.90;;;;;;5073996;28;20180;-68
2022/12/20 04:24:21;;;;;;;0.40;0.40;;;5.70;99.90;;;;;;5073412;28;20700;-69
2022/12/20 04:26:48;;;;;;;0.50;0.50;;;5.80;99.90;;;;;;5073442;28;20197;-69
2022/12/20 04:29:14;;;;;;;0.38;0.38;;;5.80;99.90;;;;;;5073394;28;20186;-69
2022/12/20 04:31:39;;;;;;;0.67;0.67;;;5.80;99.90;;;;;;5073068;28;20667;-68
2022/12/20 04:34:05;;;;;;;0.30;0.30;;;5.90;99.90;;;;;;5073488;28;20881;-69
2022/12/20 04:36:31;;;;;;;0.30;0.30;;;5.90;99.90;;;;;;5073433;28;20182;-69
2022/12/20 04:38:56;;;;;;;0.30;0.30;;;5.90;99.90;;;;;;5073781;28;20792;-69
2022/12/20 04:41:22;;;;;;;0.50;0.50;;;6.00;99.90;;;;;;5071887;28;20665;-68
2022/12/20 04:43:53;;;;;;;0.40;0.40;;;6.00;99.90;;;;;;5073352;28;20166;-69
2022/12/20 04:46:19;;;;;;;0.30;0.30;;;6.10;99.90;;;;;;5073127;28;20257;-68
2022/12/20 04:48:45;;;;;;;0.40;0.40;;;6.10;99.90;;;;;;5072174;28;20693;-69
2022/12/20 04:51:11;;;;;;;0.30;0.30;;;6.10;99.90;;;;;;5073538;28;20195;-69
2022/12/20 04:53:46;;;;;;;0.35;0.35;;;6.10;99.90;;;;;;5073081;28;20529;-69
2022/12/20 04:56:23;;;;;;;0.30;0.30;;;5.90;99.90;;;;;;5073112;28;20252;-68
2022/12/20 04:58:50;;;;;;;0.35;0.35;;;6.00;99.90;;;;;;5073334;28;20177;-68
2022/12/20 05:01:16;;;;;;;0.30;0.30;;;5.90;99.90;;;;;;5072084;28;20174;-68
2022/12/20 05:03:43;;;;;;;0.40;0.40;;;5.90;99.90;;;;;;5073573;28;20198;-68
2022/12/20 05:06:09;;;;;;;0.40;0.40;;;5.90;99.90;;;;;;5072881;28;20201;-69
2022/12/20 05:08:35;;;;;;;0.30;0.30;;;6.00;99.90;;;;;;5075161;28;20200;-68
2022/12/20 05:11:01;;;;;;;0.47;0.47;;;6.00;99.90;;;;;;5076893;28;20230;-69
2022/12/20 05:13:26;;;;;;;0.87;0.87;;;6.00;99.90;;;;;;5077057;28;20873;-69
2022/12/20 05:15:54;;;;;;;0.30;0.30;;;5.90;99.90;;;;;;5076904;28;20411;-69
2022/12/20 05:18:20;;;;;;;0.40;0.40;;;5.90;99.90;;;;;;5076332;28;20173;-69
2022/12/20 05:20:46;;;;;;;0.40;0.40;;;5.90;99.90;;;;;;5076514;28;20264;-68
2022/12/20 05:26:17;;;;;;;0.40;0.40;;;5.80;99.90;;;;;;5076707;28;20223;-68
2022/12/20 05:28:42;;;;;;;0.65;0.65;;;5.70;99.90;;;;;;5076911;28;20194;-68
2022/12/20 05:31:08;;;;;;;0.40;0.40;;;5.60;99.90;;;;;;5076233;28;20197;-68
2022/12/20 05:33:34;;;;;;;0.30;0.30;;;5.60;99.90;;;;;;5076416;28;20165;-68
2022/12/20 05:35:59;;;;;;;0.50;0.50;;;5.50;99.90;;;;;;5074875;28;20192;-68
2022/12/20 05:38:25;;;;;;;0.40;0.40;;;5.30;99.90;;;;;;5076425;28;20581;-69
2022/12/20 05:40:51;;;;;;;0.47;0.47;;;5.20;99.90;;;;;;5076764;28;20173;-68
2022/12/20 05:43:18;;;;;;;0.50;0.50;;;5.20;99.90;;;;;;5076737;28;20172;-68
2022/12/20 05:45:51;;;;;;;0.40;0.40;;;5.20;99.90;;;;;;5075901;28;20256;-68
2022/12/20 05:48:21;;;;;;;0.40;0.40;;;5.30;99.90;;;;;;5076238;28;20181;-69
2022/12/20 05:50:47;;;;;;;0.30;0.30;;;5.20;99.90;;;;;;5076257;28;20194;-68
2022/12/20 05:53:14;;;;;;;0.57;0.57;;;5.20;99.90;;;;;;5076463;28;20176;-69
2022/12/20 05:55:48;;;;;;;0.88;0.70;;;5.20;99.90;;;;;;5074474;28;20415;-69
2022/12/20 05:58:14;;;;;;;0.35;0.35;;;5.20;99.90;;;;;;5076029;28;20174;-68
2022/12/20 06:00:41;;;;;;;1.77;1.67;;;5.20;99.90;;;;;;5075877;28;20193;-68
2022/12/20 06:03:08;;;;;;;0.40;0.40;;;5.10;99.90;;;;;;5076042;28;20170;-68
2022/12/20 06:05:35;;;;;;;0.50;0.50;;;5.20;99.90;;;;;;5075927;28;20170;-68
2022/12/20 06:08:02;;;;;;;0.60;0.60;;;5.10;99.90;;;;;;5076237;28;20538;-69
2022/12/20 06:10:28;;;;;;;0.40;0.40;;;5.20;99.90;;;;;;5075370;28;20204;-68
2022/12/20 06:12:53;;;;;;;0.63;0.60;;;5.20;99.90;;;;;;5075587;28;20161;-68
2022/12/20 06:15:19;;;;;;;0.40;0.40;;;5.20;99.90;;;;;;5075572;28;20254;-68
2022/12/20 06:17:45;;;;;;;0.70;0.70;;;5.20;99.90;;;;;;5075456;28;20199;-69
2022/12/20 06:20:11;;;;;;;0.33;0.33;;;5.20;99.90;;;;;;5074234;28;20185;-68
2022/12/20 06:22:37;;;;;;;0.30;0.30;;;5.20;99.90;;;;;;5075234;28;20193;-68
2022/12/20 06:25:04;;;;;;;0.40;0.40;;;5.20;99.90;;;;;;5075437;28;20215;-68
2022/12/20 06:27:30;;;;;;;0.40;0.40;;;5.10;99.90;;;;;;5075288;28;20161;-69
2022/12/20 06:29:55;;;;;;;0.30;0.30;;;5.10;99.90;;;;;;5075270;28;20746;-69
2022/12/20 06:32:21;;;;;;;0.30;0.30;;;5.00;99.90;;;;;;5075430;28;20174;-68
2022/12/20 06:34:47;;;;;;;0.40;0.40;;;5.00;99.90;;;;;;5075101;28;20170;-69
2022/12/20 06:37:12;;;;;;;0.43;0.43;;;4.90;99.90;;;;;;5074954;28;20185;-69
2022/12/20 06:39:38;;;;;;;0.70;0.70;;;5.00;99.90;;;;;;5075564;28;20189;-68
2022/12/20 06:42:04;;;;;;;0.37;0.37;;;5.00;99.90;;;;;;5074908;28;20177;-68
2022/12/20 06:44:30;;;;;;;0.30;0.30;;;5.10;99.90;;;;;;5074903;28;20244;-68
2022/12/20 06:46:56;;;;;;;0.30;0.30;;;5.10;99.90;;;;;;5075103;28;20197;-69
2022/12/20 06:49:21;;;;;;;0.30;0.30;;;5.10;99.90;;;;;;5074564;28;20723;-69
2022/12/20 06:51:47;;;;;;;0.30;0.30;;;5.10;99.90;;;;;;5075211;28;20453;-69
2022/12/20 06:54:13;;;;;;;0.40;0.40;;;5.10;99.90;;;;;;5075067;28;20174;-68
2022/12/20 06:56:39;;;;;;;0.40;0.40;;;5.10;99.90;;;;;;5074695;28;20396;-68
2022/12/20 06:59:05;;;;;;;0.40;0.40;;;5.10;99.90;;;;;;5074659;28;20182;-69
2022/12/20 07:01:30;;;;;;;1.38;0.95;;;5.10;99.90;;;;;;5074879;28;20169;-68
2022/12/20 07:03:56;;;;;;;2.53;1.33;;;5.20;99.90;;;;;;5074551;28;20196;-68
2022/12/20 07:06:22;;;;;;;0.40;0.40;;;5.20;99.90;;;;;;5074821;28;20400;-68
2022/12/20 07:08:48;;;;;;;0.30;0.30;;;5.20;99.90;;;;;;5074998;28;20193;-69
2022/12/20 07:11:14;;;;;;;0.50;0.50;;;5.20;99.90;;;;;;5074327;28;20451;-68
2022/12/20 07:13:39;;;;;;;0.33;0.33;;;5.20;99.90;;;;;;5074604;28;20165;-68
2022/12/20 07:16:05;;;;;;;0.40;0.40;;;5.30;99.90;;;;;;5074416;28;20252;-69
2022/12/20 07:18:31;;;;;;;0.40;0.40;;;5.30;99.90;;;;;;5074498;28;20172;-69
2022/12/20 07:21:02;;;;;;;0.60;0.60;;;5.40;99.90;;;;;;5074775;28;20173;-68
2022/12/20 07:23:28;;;;;;;0.85;0.85;;;5.50;99.90;;;;;;5074316;28;20411;-68
2022/12/20 07:25:55;;;;;;;0.40;0.40;;;5.60;99.90;;;;;;5072209;28;20181;-68
2022/12/20 07:28:22;;;;;;;0.50;0.50;;;5.60;99.90;;;;;;5074211;28;20339;-68
2022/12/20 07:30:48;;;;;;;0.40;0.40;;;5.70;99.90;;;;;;5073336;28;20284;-68
2022/12/20 07:33:13;;;;;;;0.43;0.43;;;5.70;99.90;;;;;;5072685;28;20245;-68
2022/12/20 07:35:39;;;;;;;0.40;0.40;;;5.80;99.90;;;;;;5073647;28;20180;-70
2022/12/20 07:38:05;;;;;;;0.50;0.50;;;5.80;99.90;;;;;;5074525;28;20166;-68
2022/12/20 07:40:30;;;;;;;0.40;0.40;;;5.90;99.90;;;;;;5073905;28;20254;-68
2022/12/20 07:42:56;;;;;;;0.37;0.37;;;5.90;99.90;;;;;;5073805;28;20180;-69
2022/12/20 07:45:22;;;;;;;1.27;1.27;;;5.90;99.90;;;;;;5073598;28;20920;-69
2022/12/20 07:47:47;;;;;;;0.40;0.40;;;5.90;99.90;;;;;;5073923;28;20176;-69
2022/12/20 07:50:13;;;;;;;0.47;0.47;;;6.00;99.90;;;;;;5073604;28;20249;-69
2022/12/20 07:52:43;;;;;;;0.60;0.60;;;6.00;99.90;;;;;;5073693;28;20169;-69
2022/12/20 07:55:10;;;;;;;0.32;0.32;;;6.00;99.90;;;;;;5073551;28;20587;-68
2022/12/20 07:58:02;;;;;;;0.68;0.68;;;6.10;99.90;;;;;;5073902;28;20171;-69
2022/12/20 08:00:27;;;;;;;0.40;0.40;;;6.10;99.90;;;;;;5071225;28;20630;-70
2022/12/20 08:03:15;;;;;;;2.87;2.60;;;6.10;99.90;;;;;;5074156;28;20177;-70
2022/12/20 08:05:45;;;;;;;3.60;2.08;;;6.30;99.90;;;;;;5073624;28;20210;-70
2022/12/20 08:08:11;;;;;;;0.95;0.95;;;6.40;99.90;;;;;;5073965;28;20188;-71
2022/12/20 08:10:37;;;;;;;0.40;0.40;;;6.50;99.90;;;;;;5072546;28;20202;-71
2022/12/20 08:13:05;;;;;;;0.40;0.40;;;6.50;99.90;;;;;;5073992;28;20894;-70
2022/12/20 08:15:32;;;;;;;0.40;0.40;;;6.60;99.90;;;;;;5073454;28;20184;-69
2022/12/20 08:17:58;;;;;;;0.60;0.60;;;6.70;99.90;;;;;;5073896;28;20162;-70
2022/12/20 08:20:23;;;;;;;0.37;0.37;;;6.80;99.90;;;;;;5073576;28;20732;-70
2022/12/20 08:22:49;;;;;;;1.03;0.80;;;6.90;99.90;;;;;;5073279;28;20188;-71
2022/12/20 08:25:15;;;;;;;0.40;0.40;;;7.00;99.90;;;;;;5073150;28;20175;-70
2022/12/20 08:27:41;;;;;;;0.40;0.40;;;7.00;99.90;;;;;;5073909;28;20616;-70
2022/12/20 08:30:09;;;;;;;0.77;0.67;;;7.10;99.90;;;;;;5073596;28;20217;-70
2022/12/20 08:32:35;;;;;;;0.40;0.40;;;7.20;99.90;;;;;;5072085;28;20687;-68
2022/12/20 08:35:00;;;;;;;0.50;0.50;;;7.20;99.90;;;;;;5073298;28;20251;-68
2022/12/20 08:37:27;;;;;;;0.43;0.43;;;7.20;99.90;;;;;;5072878;28;20425;-68
2022/12/20 08:39:53;;;;;;;0.40;0.40;;;7.20;99.90;;;;;;5069122;28;20199;-68
2022/12/20 08:42:18;;;;;;;0.40;0.40;;;7.40;99.90;;;;;;5073501;28;20232;-68
2022/12/20 08:44:44;;;;;;;0.40;0.40;;;7.50;99.90;;;;;;5075638;28;20337;-69
2022/12/20 08:47:10;;;;;;;0.47;0.47;;;7.70;99.90;;;;;;5075348;28;20559;-68
2022/12/20 08:49:36;;;;;;;0.30;0.30;;;8.00;99.90;;;;;;5077192;28;20421;-68
2022/12/20 08:52:01;;;;;;;1.13;1.03;;;8.30;99.90;;;;;;5077474;28;20243;-68
2022/12/20 08:54:27;;;;;;;0.50;0.50;;;8.50;98.90;;;;;;5077119;28;20182;-68
2022/12/20 08:56:53;;;;;;;0.67;0.67;;;8.40;98.30;;;;;;5077495;28;20169;-68
2022/12/20 08:59:19;;;;;;;55.93;51.23;;;8.30;98.20;;;;;;5075746;28;20186;-68
2022/12/20 09:01:44;;;;;;;5.13;4.63;;;8.20;98.20;;;;;;5075958;28;20208;-68
2022/12/20 09:04:11;;;;;;;2.17;2.07;;;8.10;98.20;;;;;;5076834;28;20412;-68
2022/12/20 09:06:36;;;;;;;0.50;0.50;;;8.00;98.30;;;;;;5074005;28;20164;-68
2022/12/20 09:09:03;;;;;;;1.70;1.60;;;7.80;98.50;;;;;;5075071;28;20557;-68
2022/12/20 09:11:29;;;;;;;1.08;0.95;;;7.80;98.70;;;;;;5075812;28;20459;-68
2022/12/20 09:13:56;;;;;;;2.10;1.17;;;7.70;98.90;;;;;;5076071;28;20546;-71
2022/12/20 09:16:25;;;;;;;2.00;1.90;;;7.60;99.20;;;;;;5075833;28;20808;-68
2022/12/20 09:18:53;;;;;;;2.15;2.05;;;7.70;99.40;;;;;;5075862;28;20595;-68
2022/12/20 09:21:19;;;;;;;1.13;1.02;;;7.80;99.50;;;;;;5074463;28;20788;-68
2022/12/20 09:23:45;;;;;;;0.40;0.40;;;8.00;99.60;;;;;;5077064;28;20184;-68
2022/12/20 09:26:14;;;;;;;1.57;1.47;;;8.10;99.60;;;;;;5076069;28;20581;-68
2022/12/20 09:28:41;;;;;;;0.40;0.40;;;8.20;99.50;;;;;;5075729;28;20927;-68
2022/12/20 09:31:10;;;;;;;0.70;0.70;;;8.40;99.40;;;;;;5076378;28;20213;-68
2022/12/20 09:33:36;;;;;;;0.63;0.63;;;8.50;98.80;;;;;;5076502;28;20165;-68
2022/12/20 09:36:02;;;;;;;0.80;0.80;;;8.50;98.60;;;;;;5076139;28;20200;-68
2022/12/20 09:38:30;;;;;;;0.70;0.70;;;8.50;98.50;;;;;;5076737;28;20406;-69
2022/12/20 09:41:01;;;;;;;0.57;0.57;;;8.50;98.60;;;;;;5076821;28;20174;-68
2022/12/20 09:43:27;;;;;;;0.52;0.52;;;8.50;98.60;;;;;;5074440;28;20197;-69
2022/12/20 09:45:59;;;;;;;0.40;0.40;;;8.50;98.70;;;;;;5076037;28;20188;-68
2022/12/20 09:48:34;;;;;;;0.40;0.40;;;8.60;98.40;;;;;;5076324;28;20583;-68
2022/12/20 09:51:30;;;;;;;2.90;2.80;;;8.60;98.30;;;;;;5076157;28;20238;-68
2022/12/20 09:54:33;;;;;;;1.25;1.15;;;8.70;98.50;;;;;;5074953;28;20536;-69
2022/12/20 09:57:22;;;;;;;6.38;5.72;;;8.80;98.70;;;;;;5076416;28;20173;-68
2022/12/20 09:59:48;;;;;;;3.80;2.03;;;8.90;98.80;;;;;;5075954;28;20599;-68
2022/12/20 10:02:20;;;;;;;0.60;0.60;;;9.00;98.80;;;;;;5075863;28;20201;-68
2022/12/20 10:04:46;;;;;;;1.30;1.20;;;9.10;98.90;;;;;;5074275;28;20527;-70
2022/12/20 10:07:33;;;;;;;0.57;0.57;;;9.20;99.00;;;;;;5075971;28;20252;-69
2022/12/20 10:10:21;;;;;;;1.08;0.65;;;9.40;98.70;;;;;;5076157;28;20200;-70
2022/12/20 10:13:12;;;;;;;0.73;0.70;;;9.50;98.30;;;;;;5075766;28;20165;-70
2022/12/20 10:16:00;;;;;;;0.50;0.50;;;9.60;98.40;;;;;;5075876;28;20194;-68
2022/12/20 10:18:49;;;;;;;1.05;1.05;;;9.70;98.10;;;;;;5075493;28;20268;-69
2022/12/20 10:21:27;;;;;;;0.50;0.50;;;9.80;97.90;;;;;;5075646;28;20180;-71
2022/12/20 10:24:00;;;;;;;0.70;0.70;;;9.80;97.60;;;;;;5075984;28;20173;-71
2022/12/20 10:26:26;;;;;;;0.60;0.60;;;9.90;97.60;;;;;;5075551;28;20170;-71
2022/12/20 10:28:52;;;;;;;1.60;1.50;;;9.90;97.90;;;;;;5075396;28;20530;-71
2022/12/20 10:31:18;;;;;;;1.10;1.07;;;9.90;97.90;;;;;;5075029;28;20539;-70
2022/12/20 10:33:44;;;;;;;4.25;3.35;;;10.00;97.50;;;;;;5075193;28;20211;-69
2022/12/20 10:36:36;;;;;;;1.00;0.93;;;10.00;97.20;;;;;;5073484;28;20189;-72
2022/12/20 10:39:08;;;;;;;0.45;0.45;;;10.00;97.20;;;;;;5075056;28;20202;-71
2022/12/20 10:41:39;;;;;;;0.50;0.50;;;10.10;97.30;;;;;;5075175;28;20174;-74
2022/12/20 10:44:16;;;;;;;0.50;0.50;;;10.20;97.30;;;;;;5074894;28;20216;-71
2022/12/20 10:46:47;;;;;;;1.40;1.02;;;10.30;97.60;;;;;;5075219;28;20164;-72
2022/12/20 10:49:35;;;;;;;0.60;0.47;;;10.70;98.20;;;;;;5075360;28;20194;-72
2022/12/20 10:52:12;;;;;;;1.52;1.42;;;11.20;97.80;;;;;;5074794;28;20200;-74
2022/12/20 10:54:46;;;;;;;0.90;0.73;;;11.50;96.40;;;;;;5074604;28;20177;-71
2022/12/20 10:57:19;;;;;;;3.27;1.50;;;11.70;96.00;;;;;;5073832;28;20435;-71
2022/12/20 10:59:50;;;;;;;0.90;0.90;;;12.00;96.00;;;;;;5074698;28;20515;-71
2022/12/20 11:02:37;;;;;;;0.43;0.43;;;12.40;96.10;;;;;;5075189;28;20384;-72
2022/12/20 11:05:11;;;;;;;2.03;1.73;;;12.90;95.10;;;;;;5074227;28;20400;-73
2022/12/20 11:07:51;;;;;;;0.77;0.70;;;13.30;93.90;;;;;;5074754;28;20399;-73
2022/12/20 11:10:19;;;;;;;1.90;1.30;;;13.60;92.60;;;;;;5074803;28;20455;-73
2022/12/20 11:12:54;;;;;;;1.43;1.13;;;13.50;90.80;;;;;;5074363;28;20442;-73
2022/12/20 11:15:23;;;;;;;1.07;0.90;;;13.30;90.40;;;;;;5074331;28;20489;-73
2022/12/20 11:18:04;;;;;;;1.20;0.90;;;13.00;90.20;;;;;;5074596;28;20462;-71
2022/12/20 11:20:29;;;;;;;1.23;1.10;;;12.80;91.00;;;;;;5074907;28;20885;-73
2022/12/20 11:23:16;;;;;;;2.37;1.00;;;12.40;91.70;;;;;;5074393;28;20503;-73
2022/12/20 11:26:26;;;;;;;3.00;2.37;;;12.00;93.10;;;;;;5074144;28;20549;-72
2022/12/20 11:29:04;;;;;;;4.33;4.00;;;11.60;94.10;;;;;;5073849;28;20424;-69
2022/12/20 11:32:00;;;;;;;1.70;1.60;;;11.60;94.40;;;;;;5072962;28;20455;-72
2022/12/20 11:34:38;;;;;;;2.80;2.23;;;11.60;94.40;;;;;;5074001;28;20412;-73
2022/12/20 11:37:03;;;;;;;3.50;1.83;;;11.60;94.60;;;;;;5072626;28;20428;-72
2022/12/20 11:39:54;;;;;;;1.13;1.03;;;11.70;94.90;;;;;;5073043;28;20497;-73
2022/12/20 11:42:37;;;;;;;0.50;0.50;;;11.90;94.80;;;;;;5074139;28;20165;-72
2022/12/20 11:45:32;;;;;;;0.80;0.80;;;12.00;94.20;;;;;;5071821;28;20415;-74
2022/12/20 11:48:03;;;;;;;1.77;1.67;;;11.90;93.50;;;;;;5071992;28;20423;-73
2022/12/20 11:50:47;;;;;;;0.40;0.40;;;11.70;93.50;;;;;;5072270;28;20987;-71
2022/12/20 11:53:34;;;;;;;0.87;0.87;;;11.60;93.00;;;;;;5072494;28;20404;-70
2022/12/20 11:56:06;;;;;;;0.50;0.50;;;11.40;93.10;;;;;;5071721;28;20423;-72
2022/12/20 11:58:53;;;;;;;0.90;0.90;;;11.40;93.50;;;;;;5074188;28;20420;-71
2022/12/20 12:01:42;;;;;;;0.67;0.67;;;11.40;93.70;;;;;;5073992;28;20433;-70
2022/12/20 12:04:16;;;;;;;0.30;0.30;;;11.30;93.70;;;;;;5073637;28;20938;-70
2022/12/20 12:06:48;;;;;;;1.07;0.70;;;11.10;93.60;;;;;;5073443;28;20427;-70
2022/12/20 12:09:23;;;;;;;0.40;0.40;;;11.00;93.50;;;;;;5073801;28;20435;-70
2022/12/20 12:12:02;;;;;;;0.60;0.60;;;10.70;93.50;;;;;;5073798;28;20634;-70
2022/12/20 12:14:45;;;;;;;0.45;0.45;;;10.60;93.70;;;;;;5073637;28;20165;-69
2022/12/20 12:17:46;;;;;;;0.40;0.40;;;10.50;93.90;;;;;;5073229;28;20243;-70
2022/12/20 12:20:43;;;;;;;1.70;1.60;;;10.50;94.50;;;;;;5073843;28;20184;-71
2022/12/20 12:23:28;;;;;;;1.77;1.67;;;10.40;95.00;;;;;;5074094;28;20180;-70
2022/12/20 12:25:56;;;;;;;0.57;0.57;;;10.20;95.20;;;;;;5073456;28;20177;-70
2022/12/20 12:28:22;;;;;;;0.60;0.60;;;10.10;94.60;;;;;;5074041;28;20180;-70
2022/12/20 12:30:56;;;;;;;0.30;0.30;;;9.90;94.70;;;;;;5073910;28;20197;-70
2022/12/20 12:33:29;;;;;;;0.50;0.50;;;9.70;94.80;;;;;;5073416;28;20176;-69
2022/12/20 12:36:07;;;;;;;0.40;0.40;;;9.60;94.90;;;;;;5073064;28;20176;-70
2022/12/20 12:38:52;;;;;;;0.40;0.40;;;9.60;94.90;;;;;;5073285;28;20172;-70
2022/12/20 12:41:54;;;;;;;0.35;0.35;;;9.60;94.90;;;;;;5072417;28;20184;-70
2022/12/20 12:44:42;;;;;;;0.40;0.40;;;9.60;95.10;;;;;;5073792;28;20574;-70
2022/12/20 12:47:34;;;;;;;0.70;0.70;;;9.60;95.10;;;;;;5073301;28;20169;-70
2022/12/20 12:50:02;;;;;;;0.30;0.30;;;9.60;95.10;;;;;;5072889;28;20224;-70
2022/12/20 12:52:51;;;;;;;0.30;0.30;;;9.60;95.10;;;;;;5072524;28;20186;-70
2022/12/20 12:55:53;;;;;;;0.30;0.30;;;9.60;95.10;;;;;;5073296;28;20162;-71
2022/12/20 12:58:21;;;;;;;0.40;0.40;;;9.60;95.10;;;;;;5071116;28;20666;-72
2022/12/20 13:00:51;;;;;;;0.30;0.30;;;9.60;95.00;;;;;;5072497;28;20185;-70
2022/12/20 13:03:37;;;;;;;0.30;0.30;;;9.60;94.70;;;;;;5073184;28;20223;-71
2022/12/20 13:06:24;;;;;;;0.30;0.30;;;9.50;94.70;;;;;;5071721;28;20243;-71
2022/12/20 13:08:59;;;;;;;0.55;0.55;;;9.60;94.80;;;;;;5072539;28;20198;-71
2022/12/20 13:11:43;;;;;;;0.50;0.50;;;9.50;94.60;;;;;;5070393;28;20204;-71
2022/12/20 13:14:23;;;;;;;0.30;0.30;;;9.50;94.60;;;;;;5072937;28;20507;-70
2022/12/20 13:17:04;;;;;;;0.30;0.30;;;9.60;94.70;;;;;;5073249;28;20169;-70